sensor_id;sensor_type;location;lat;lon;timestamp;P1;durP1;ratioP1;P2;durP2;ratioP2
11082;SDS011;5595;50.186;8.468;2023-07-29T00:01:53;2.20;;;2.10;;
11082;SDS011;5595;50.186;8.468;2023-07-29T00:04:20;2.85;;;2.30;;
11082;SDS011;5595;50.186;8.468;2023-07-29T00:06:47;2.20;;;2.00;;
11082;SDS011;5595;50.186;8.468;2023-07-29T00:09:14;1.92;;;1.75;;
11082;SDS011;5595;50.186;8.468;2023-07-29T00:11:41;1.77;;;1.67;;
11082;SDS011;5595;50.186;8.468;2023-07-29T00:14:07;2.40;;;1.92;;
11082;SDS011;5595;50.186;8.468;2023-07-29T00:16:35;1.83;;;1.70;;
11082;SDS011;5595;50.186;8.468;2023-07-29T00:19:02;3.58;;;1.70;;
11082;SDS011;5595;50.186;8.468;2023-07-29T00:21:29;2.15;;;1.30;;
11082;SDS011;5595;50.186;8.468;2023-07-29T00:23:56;1.75;;;1.65;;
11082;SDS011;5595;50.186;8.468;2023-07-29T00:26:23;1.63;;;1.52;;
11082;SDS011;5595;50.186;8.468;2023-07-29T00:28:51;2.92;;;1.70;;
11082;SDS011;5595;50.186;8.468;2023-07-29T00:31:17;1.98;;;1.52;;
11082;SDS011;5595;50.186;8.468;2023-07-29T00:33:47;1.35;;;1.25;;
11082;SDS011;5595;50.186;8.468;2023-07-29T00:36:14;1.40;;;1.30;;
11082;SDS011;5595;50.186;8.468;2023-07-29T00:38:41;2.47;;;2.00;;
11082;SDS011;5595;50.186;8.468;2023-07-29T00:41:08;2.10;;;2.00;;
11082;SDS011;5595;50.186;8.468;2023-07-29T00:43:38;2.38;;;2.17;;
11082;SDS011;5595;50.186;8.468;2023-07-29T00:46:05;2.70;;;2.40;;
11082;SDS011;5595;50.186;8.468;2023-07-29T00:48:33;2.45;;;2.08;;
11082;SDS011;5595;50.186;8.468;2023-07-29T00:51:01;2.17;;;1.98;;
11082;SDS011;5595;50.186;8.468;2023-07-29T00:53:28;2.30;;;2.10;;
11082;SDS011;5595;50.186;8.468;2023-07-29T00:55:54;1.88;;;1.77;;
11082;SDS011;5595;50.186;8.468;2023-07-29T00:58:21;2.63;;;2.42;;
11082;SDS011;5595;50.186;8.468;2023-07-29T01:00:48;2.58;;;2.10;;
11082;SDS011;5595;50.186;8.468;2023-07-29T01:03:16;2.17;;;2.08;;
11082;SDS011;5595;50.186;8.468;2023-07-29T01:05:47;2.25;;;2.05;;
11082;SDS011;5595;50.186;8.468;2023-07-29T01:08:27;2.40;;;2.20;;
11082;SDS011;5595;50.186;8.468;2023-07-29T01:11:07;2.42;;;2.22;;
11082;SDS011;5595;50.186;8.468;2023-07-29T01:13:56;2.40;;;2.15;;
11082;SDS011;5595;50.186;8.468;2023-07-29T01:16:29;2.70;;;2.50;;
11082;SDS011;5595;50.186;8.468;2023-07-29T01:19:02;3.03;;;2.72;;
11082;SDS011;5595;50.186;8.468;2023-07-29T01:21:35;2.60;;;2.40;;
11082;SDS011;5595;50.186;8.468;2023-07-29T01:24:07;2.60;;;2.40;;
11082;SDS011;5595;50.186;8.468;2023-07-29T01:26:34;3.28;;;3.00;;
11082;SDS011;5595;50.186;8.468;2023-07-29T01:29:01;3.28;;;2.97;;
11082;SDS011;5595;50.186;8.468;2023-07-29T01:31:30;4.35;;;3.10;;
11082;SDS011;5595;50.186;8.468;2023-07-29T01:34:01;3.08;;;2.72;;
11082;SDS011;5595;50.186;8.468;2023-07-29T01:36:35;2.78;;;2.58;;
11082;SDS011;5595;50.186;8.468;2023-07-29T01:39:08;2.92;;;2.67;;
11082;SDS011;5595;50.186;8.468;2023-07-29T01:41:36;2.83;;;2.55;;
11082;SDS011;5595;50.186;8.468;2023-07-29T01:44:04;2.42;;;2.22;;
11082;SDS011;5595;50.186;8.468;2023-07-29T01:46:33;2.70;;;2.50;;
11082;SDS011;5595;50.186;8.468;2023-07-29T01:48:59;4.32;;;2.53;;
11082;SDS011;5595;50.186;8.468;2023-07-29T01:51:26;2.97;;;2.30;;
11082;SDS011;5595;50.186;8.468;2023-07-29T01:53:53;3.13;;;2.50;;
11082;SDS011;5595;50.186;8.468;2023-07-29T01:56:22;3.65;;;3.22;;
11082;SDS011;5595;50.186;8.468;2023-07-29T01:58:48;3.50;;;3.00;;
11082;SDS011;5595;50.186;8.468;2023-07-29T02:01:15;3.50;;;3.13;;
11082;SDS011;5595;50.186;8.468;2023-07-29T02:03:43;3.28;;;2.95;;
11082;SDS011;5595;50.186;8.468;2023-07-29T02:06:09;3.58;;;3.28;;
11082;SDS011;5595;50.186;8.468;2023-07-29T02:08:37;3.90;;;3.50;;
11082;SDS011;5595;50.186;8.468;2023-07-29T02:11:05;4.10;;;3.47;;
11082;SDS011;5595;50.186;8.468;2023-07-29T02:13:34;5.32;;;3.55;;
11082;SDS011;5595;50.186;8.468;2023-07-29T02:16:00;3.75;;;3.08;;
11082;SDS011;5595;50.186;8.468;2023-07-29T02:18:27;4.07;;;3.55;;
11082;SDS011;5595;50.186;8.468;2023-07-29T02:20:54;4.13;;;3.58;;
11082;SDS011;5595;50.186;8.468;2023-07-29T02:23:21;4.15;;;3.33;;
11082;SDS011;5595;50.186;8.468;2023-07-29T02:25:48;4.25;;;3.67;;
11082;SDS011;5595;50.186;8.468;2023-07-29T02:28:14;5.38;;;3.63;;
11082;SDS011;5595;50.186;8.468;2023-07-29T02:30:42;5.45;;;4.10;;
11082;SDS011;5595;50.186;8.468;2023-07-29T02:33:10;4.13;;;3.72;;
11082;SDS011;5595;50.186;8.468;2023-07-29T02:35:36;4.85;;;4.10;;
11082;SDS011;5595;50.186;8.468;2023-07-29T02:38:03;6.57;;;4.40;;
11082;SDS011;5595;50.186;8.468;2023-07-29T02:40:30;5.38;;;4.38;;
11082;SDS011;5595;50.186;8.468;2023-07-29T02:42:57;5.00;;;4.10;;
11082;SDS011;5595;50.186;8.468;2023-07-29T02:45:24;5.20;;;4.18;;
11082;SDS011;5595;50.186;8.468;2023-07-29T02:47:52;5.82;;;4.28;;
11082;SDS011;5595;50.186;8.468;2023-07-29T02:50:19;5.63;;;4.53;;
11082;SDS011;5595;50.186;8.468;2023-07-29T02:52:46;4.50;;;3.53;;
11082;SDS011;5595;50.186;8.468;2023-07-29T02:55:13;3.72;;;3.35;;
11082;SDS011;5595;50.186;8.468;2023-07-29T02:57:39;4.85;;;2.92;;
11082;SDS011;5595;50.186;8.468;2023-07-29T03:00:07;4.93;;;3.55;;
11082;SDS011;5595;50.186;8.468;2023-07-29T03:02:35;3.40;;;3.10;;
11082;SDS011;5595;50.186;8.468;2023-07-29T03:05:03;3.55;;;3.22;;
11082;SDS011;5595;50.186;8.468;2023-07-29T03:07:31;3.33;;;3.03;;
11082;SDS011;5595;50.186;8.468;2023-07-29T03:09:57;3.30;;;2.80;;
11082;SDS011;5595;50.186;8.468;2023-07-29T03:12:24;2.88;;;2.60;;
11082;SDS011;5595;50.186;8.468;2023-07-29T03:14:51;4.10;;;3.08;;
11082;SDS011;5595;50.186;8.468;2023-07-29T03:17:18;3.53;;;2.92;;
11082;SDS011;5595;50.186;8.468;2023-07-29T03:19:45;3.20;;;2.42;;
11082;SDS011;5595;50.186;8.468;2023-07-29T03:22:13;3.45;;;3.08;;
11082;SDS011;5595;50.186;8.468;2023-07-29T03:24:39;4.97;;;3.20;;
11082;SDS011;5595;50.186;8.468;2023-07-29T03:27:07;3.17;;;2.88;;
11082;SDS011;5595;50.186;8.468;2023-07-29T03:29:34;3.38;;;2.58;;
11082;SDS011;5595;50.186;8.468;2023-07-29T03:32:01;2.97;;;2.67;;
11082;SDS011;5595;50.186;8.468;2023-07-29T03:34:29;2.90;;;2.30;;
11082;SDS011;5595;50.186;8.468;2023-07-29T03:36:56;3.90;;;3.00;;
11082;SDS011;5595;50.186;8.468;2023-07-29T03:39:25;2.60;;;2.40;;
11082;SDS011;5595;50.186;8.468;2023-07-29T03:41:51;2.53;;;2.33;;
11082;SDS011;5595;50.186;8.468;2023-07-29T03:44:18;3.45;;;2.88;;
11082;SDS011;5595;50.186;8.468;2023-07-29T03:46:45;3.17;;;2.72;;
11082;SDS011;5595;50.186;8.468;2023-07-29T03:49:12;2.40;;;1.98;;
11082;SDS011;5595;50.186;8.468;2023-07-29T03:51:39;2.80;;;2.60;;
11082;SDS011;5595;50.186;8.468;2023-07-29T03:54:06;4.72;;;3.00;;
11082;SDS011;5595;50.186;8.468;2023-07-29T03:56:34;2.55;;;2.35;;
11082;SDS011;5595;50.186;8.468;2023-07-29T03:59:05;3.30;;;3.00;;
11082;SDS011;5595;50.186;8.468;2023-07-29T04:01:31;2.92;;;2.55;;
11082;SDS011;5595;50.186;8.468;2023-07-29T04:03:58;3.47;;;2.83;;
11082;SDS011;5595;50.186;8.468;2023-07-29T04:06:25;3.83;;;2.78;;
11082;SDS011;5595;50.186;8.468;2023-07-29T04:08:52;4.13;;;2.95;;
11082;SDS011;5595;50.186;8.468;2023-07-29T04:11:19;3.08;;;2.80;;
11082;SDS011;5595;50.186;8.468;2023-07-29T04:13:47;3.97;;;2.80;;
11082;SDS011;5595;50.186;8.468;2023-07-29T04:16:14;1.73;;;1.63;;
11082;SDS011;5595;50.186;8.468;2023-07-29T04:18:41;3.55;;;2.85;;
11082;SDS011;5595;50.186;8.468;2023-07-29T04:21:08;3.25;;;2.25;;
11082;SDS011;5595;50.186;8.468;2023-07-29T04:23:35;1.75;;;1.65;;
11082;SDS011;5595;50.186;8.468;2023-07-29T04:26:02;2.15;;;1.95;;
11082;SDS011;5595;50.186;8.468;2023-07-29T04:28:29;2.63;;;2.33;;
11082;SDS011;5595;50.186;8.468;2023-07-29T04:30:57;2.90;;;2.60;;
11082;SDS011;5595;50.186;8.468;2023-07-29T04:33:24;3.00;;;2.35;;
11082;SDS011;5595;50.186;8.468;2023-07-29T04:35:51;2.45;;;2.28;;
11082;SDS011;5595;50.186;8.468;2023-07-29T04:38:18;3.28;;;2.78;;
11082;SDS011;5595;50.186;8.468;2023-07-29T04:40:45;3.25;;;2.50;;
11082;SDS011;5595;50.186;8.468;2023-07-29T04:43:11;2.80;;;2.35;;
11082;SDS011;5595;50.186;8.468;2023-07-29T04:45:41;3.03;;;2.72;;
11082;SDS011;5595;50.186;8.468;2023-07-29T04:48:10;3.40;;;3.10;;
11082;SDS011;5595;50.186;8.468;2023-07-29T04:50:37;3.67;;;2.60;;
11082;SDS011;5595;50.186;8.468;2023-07-29T04:53:04;2.78;;;2.58;;
11082;SDS011;5595;50.186;8.468;2023-07-29T04:55:30;2.42;;;2.22;;
11082;SDS011;5595;50.186;8.468;2023-07-29T04:57:57;3.05;;;2.25;;
11082;SDS011;5595;50.186;8.468;2023-07-29T05:00:25;2.15;;;1.95;;
11082;SDS011;5595;50.186;8.468;2023-07-29T05:02:51;2.17;;;1.92;;
11082;SDS011;5595;50.186;8.468;2023-07-29T05:05:20;2.58;;;1.92;;
11082;SDS011;5595;50.186;8.468;2023-07-29T05:07:46;2.03;;;1.77;;
11082;SDS011;5595;50.186;8.468;2023-07-29T05:10:13;1.80;;;1.45;;
11082;SDS011;5595;50.186;8.468;2023-07-29T05:12:40;2.45;;;1.80;;
11082;SDS011;5595;50.186;8.468;2023-07-29T05:15:07;2.17;;;1.98;;
11082;SDS011;5595;50.186;8.468;2023-07-29T05:17:34;2.85;;;1.67;;
11082;SDS011;5595;50.186;8.468;2023-07-29T05:20:01;1.77;;;1.67;;
11082;SDS011;5595;50.186;8.468;2023-07-29T05:22:29;3.08;;;1.88;;
11082;SDS011;5595;50.186;8.468;2023-07-29T05:24:56;2.42;;;2.00;;
11082;SDS011;5595;50.186;8.468;2023-07-29T05:27:23;2.45;;;2.25;;
11082;SDS011;5595;50.186;8.468;2023-07-29T05:29:50;2.25;;;1.63;;
11082;SDS011;5595;50.186;8.468;2023-07-29T05:32:16;1.85;;;1.75;;
11082;SDS011;5595;50.186;8.468;2023-07-29T05:34:43;2.40;;;2.05;;
11082;SDS011;5595;50.186;8.468;2023-07-29T05:37:10;2.25;;;1.70;;
11082;SDS011;5595;50.186;8.468;2023-07-29T05:39:38;1.88;;;1.77;;
11082;SDS011;5595;50.186;8.468;2023-07-29T05:42:05;1.92;;;1.73;;
11082;SDS011;5595;50.186;8.468;2023-07-29T05:44:33;1.85;;;1.75;;
11082;SDS011;5595;50.186;8.468;2023-07-29T05:47:00;2.35;;;1.35;;
11082;SDS011;5595;50.186;8.468;2023-07-29T05:49:28;3.10;;;1.70;;
11082;SDS011;5595;50.186;8.468;2023-07-29T05:51:56;1.55;;;1.45;;
11082;SDS011;5595;50.186;8.468;2023-07-29T05:54:22;1.70;;;1.60;;
11082;SDS011;5595;50.186;8.468;2023-07-29T05:56:50;2.53;;;1.90;;
11082;SDS011;5595;50.186;8.468;2023-07-29T05:59:17;1.95;;;1.85;;
11082;SDS011;5595;50.186;8.468;2023-07-29T06:01:44;1.90;;;1.73;;
11082;SDS011;5595;50.186;8.468;2023-07-29T06:04:10;2.88;;;1.45;;
11082;SDS011;5595;50.186;8.468;2023-07-29T06:06:36;2.05;;;1.85;;
11082;SDS011;5595;50.186;8.468;2023-07-29T06:09:03;1.60;;;1.50;;
11082;SDS011;5595;50.186;8.468;2023-07-29T06:11:30;1.50;;;1.40;;
11082;SDS011;5595;50.186;8.468;2023-07-29T06:13:58;1.58;;;1.48;;
11082;SDS011;5595;50.186;8.468;2023-07-29T06:16:25;1.40;;;1.30;;
11082;SDS011;5595;50.186;8.468;2023-07-29T06:18:51;4.45;;;2.05;;
11082;SDS011;5595;50.186;8.468;2023-07-29T06:21:18;1.80;;;1.70;;
11082;SDS011;5595;50.186;8.468;2023-07-29T06:23:45;1.83;;;1.70;;
11082;SDS011;5595;50.186;8.468;2023-07-29T06:26:12;2.08;;;1.70;;
11082;SDS011;5595;50.186;8.468;2023-07-29T06:28:39;1.77;;;1.67;;
11082;SDS011;5595;50.186;8.468;2023-07-29T06:31:07;1.63;;;1.52;;
11082;SDS011;5595;50.186;8.468;2023-07-29T06:33:34;2.20;;;2.00;;
11082;SDS011;5595;50.186;8.468;2023-07-29T06:36:00;1.83;;;1.73;;
11082;SDS011;5595;50.186;8.468;2023-07-29T06:38:27;1.85;;;1.75;;
11082;SDS011;5595;50.186;8.468;2023-07-29T06:40:54;2.05;;;1.58;;
11082;SDS011;5595;50.186;8.468;2023-07-29T06:43:21;1.77;;;1.67;;
11082;SDS011;5595;50.186;8.468;2023-07-29T06:45:47;2.45;;;2.25;;
11082;SDS011;5595;50.186;8.468;2023-07-29T06:48:15;1.70;;;1.60;;
11082;SDS011;5595;50.186;8.468;2023-07-29T06:50:43;2.17;;;1.98;;
11082;SDS011;5595;50.186;8.468;2023-07-29T06:53:10;1.60;;;1.50;;
11082;SDS011;5595;50.186;8.468;2023-07-29T06:55:37;2.20;;;1.98;;
11082;SDS011;5595;50.186;8.468;2023-07-29T06:58:04;2.35;;;1.58;;
11082;SDS011;5595;50.186;8.468;2023-07-29T07:00:31;1.77;;;1.63;;
11082;SDS011;5595;50.186;8.468;2023-07-29T07:02:57;1.63;;;1.52;;
11082;SDS011;5595;50.186;8.468;2023-07-29T07:05:25;2.47;;;2.08;;
11082;SDS011;5595;50.186;8.468;2023-07-29T07:07:52;2.65;;;1.80;;
11082;SDS011;5595;50.186;8.468;2023-07-29T07:10:19;1.90;;;1.80;;
11082;SDS011;5595;50.186;8.468;2023-07-29T07:12:46;1.38;;;1.23;;
11082;SDS011;5595;50.186;8.468;2023-07-29T07:15:13;1.58;;;1.48;;
11082;SDS011;5595;50.186;8.468;2023-07-29T07:17:39;1.65;;;1.30;;
11082;SDS011;5595;50.186;8.468;2023-07-29T07:20:07;2.00;;;1.90;;
11082;SDS011;5595;50.186;8.468;2023-07-29T07:22:35;1.45;;;1.35;;
11082;SDS011;5595;50.186;8.468;2023-07-29T07:25:02;1.40;;;1.30;;
11082;SDS011;5595;50.186;8.468;2023-07-29T07:27:29;1.77;;;1.67;;
11082;SDS011;5595;50.186;8.468;2023-07-29T07:29:56;1.40;;;1.30;;
11082;SDS011;5595;50.186;8.468;2023-07-29T07:32:23;0.95;;;0.95;;
11082;SDS011;5595;50.186;8.468;2023-07-29T07:34:49;1.02;;;1.02;;
11082;SDS011;5595;50.186;8.468;2023-07-29T07:37:16;1.30;;;1.20;;
11082;SDS011;5595;50.186;8.468;2023-07-29T07:39:44;1.10;;;1.00;;
11082;SDS011;5595;50.186;8.468;2023-07-29T07:42:11;1.30;;;1.20;;
11082;SDS011;5595;50.186;8.468;2023-07-29T07:44:41;1.13;;;1.02;;
11082;SDS011;5595;50.186;8.468;2023-07-29T07:47:08;0.85;;;0.85;;
11082;SDS011;5595;50.186;8.468;2023-07-29T07:49:34;0.95;;;0.93;;
11082;SDS011;5595;50.186;8.468;2023-07-29T07:52:01;0.88;;;0.88;;
11082;SDS011;5595;50.186;8.468;2023-07-29T07:54:28;1.20;;;1.10;;
11082;SDS011;5595;50.186;8.468;2023-07-29T07:56:56;0.88;;;0.88;;
11082;SDS011;5595;50.186;8.468;2023-07-29T07:59:23;0.93;;;0.93;;
11082;SDS011;5595;50.186;8.468;2023-07-29T08:01:50;1.33;;;1.00;;
11082;SDS011;5595;50.186;8.468;2023-07-29T08:04:19;0.80;;;0.80;;
11082;SDS011;5595;50.186;8.468;2023-07-29T08:06:46;0.80;;;0.80;;
11082;SDS011;5595;50.186;8.468;2023-07-29T08:09:12;1.45;;;1.10;;
11082;SDS011;5595;50.186;8.468;2023-07-29T08:11:40;0.55;;;0.55;;
11082;SDS011;5595;50.186;8.468;2023-07-29T08:14:08;0.90;;;0.90;;
11082;SDS011;5595;50.186;8.468;2023-07-29T08:16:34;1.00;;;1.00;;
11082;SDS011;5595;50.186;8.468;2023-07-29T08:19:01;0.77;;;0.77;;
11082;SDS011;5595;50.186;8.468;2023-07-29T08:21:28;1.20;;;1.10;;
11082;SDS011;5595;50.186;8.468;2023-07-29T08:23:55;1.00;;;0.90;;
11082;SDS011;5595;50.186;8.468;2023-07-29T08:26:22;1.10;;;1.00;;
11082;SDS011;5595;50.186;8.468;2023-07-29T08:28:48;2.45;;;1.00;;
11082;SDS011;5595;50.186;8.468;2023-07-29T08:31:17;1.00;;;0.90;;
11082;SDS011;5595;50.186;8.468;2023-07-29T08:33:43;1.15;;;1.10;;
11082;SDS011;5595;50.186;8.468;2023-07-29T08:36:10;1.17;;;1.00;;
11082;SDS011;5595;50.186;8.468;2023-07-29T08:38:37;1.08;;;0.98;;
11082;SDS011;5595;50.186;8.468;2023-07-29T08:41:06;1.35;;;0.70;;
11082;SDS011;5595;50.186;8.468;2023-07-29T08:43:39;0.80;;;0.80;;
11082;SDS011;5595;50.186;8.468;2023-07-29T08:46:12;0.80;;;0.80;;
11082;SDS011;5595;50.186;8.468;2023-07-29T08:48:42;0.88;;;0.88;;
11082;SDS011;5595;50.186;8.468;2023-07-29T08:51:10;0.80;;;0.80;;
11082;SDS011;5595;50.186;8.468;2023-07-29T08:53:37;0.88;;;0.88;;
11082;SDS011;5595;50.186;8.468;2023-07-29T08:56:05;0.90;;;0.90;;
11082;SDS011;5595;50.186;8.468;2023-07-29T08:58:33;1.70;;;0.80;;
11082;SDS011;5595;50.186;8.468;2023-07-29T09:01:00;0.60;;;0.60;;
11082;SDS011;5595;50.186;8.468;2023-07-29T09:03:27;0.70;;;0.70;;
11082;SDS011;5595;50.186;8.468;2023-07-29T09:05:55;0.70;;;0.70;;
11082;SDS011;5595;50.186;8.468;2023-07-29T09:08:24;0.52;;;0.52;;
11082;SDS011;5595;50.186;8.468;2023-07-29T09:10:52;0.65;;;0.65;;
11082;SDS011;5595;50.186;8.468;2023-07-29T09:13:19;1.52;;;0.88;;
11082;SDS011;5595;50.186;8.468;2023-07-29T09:15:46;0.60;;;0.60;;
11082;SDS011;5595;50.186;8.468;2023-07-29T09:18:14;0.50;;;0.50;;
11082;SDS011;5595;50.186;8.468;2023-07-29T09:20:42;0.68;;;0.68;;
11082;SDS011;5595;50.186;8.468;2023-07-29T09:23:10;0.60;;;0.60;;
11082;SDS011;5595;50.186;8.468;2023-07-29T09:25:37;0.55;;;0.50;;
11082;SDS011;5595;50.186;8.468;2023-07-29T09:28:08;0.50;;;0.50;;
11082;SDS011;5595;50.186;8.468;2023-07-29T09:30:37;0.95;;;0.60;;
11082;SDS011;5595;50.186;8.468;2023-07-29T09:33:04;0.50;;;0.50;;
11082;SDS011;5595;50.186;8.468;2023-07-29T09:35:32;1.20;;;0.55;;
11082;SDS011;5595;50.186;8.468;2023-07-29T09:37:59;3.40;;;0.55;;
11082;SDS011;5595;50.186;8.468;2023-07-29T09:40:28;0.60;;;0.43;;
11082;SDS011;5595;50.186;8.468;2023-07-29T09:43:01;0.47;;;0.47;;
11082;SDS011;5595;50.186;8.468;2023-07-29T09:45:27;0.45;;;0.40;;
11082;SDS011;5595;50.186;8.468;2023-07-29T09:47:54;0.35;;;0.35;;
11082;SDS011;5595;50.186;8.468;2023-07-29T09:50:23;0.57;;;0.40;;
11082;SDS011;5595;50.186;8.468;2023-07-29T09:52:51;0.55;;;0.55;;
11082;SDS011;5595;50.186;8.468;2023-07-29T09:55:19;0.50;;;0.50;;
11082;SDS011;5595;50.186;8.468;2023-07-29T09:57:48;0.93;;;0.57;;
11082;SDS011;5595;50.186;8.468;2023-07-29T10:00:19;0.50;;;0.40;;
11082;SDS011;5595;50.186;8.468;2023-07-29T10:02:47;0.55;;;0.40;;
11082;SDS011;5595;50.186;8.468;2023-07-29T10:05:14;0.50;;;0.40;;
11082;SDS011;5595;50.186;8.468;2023-07-29T10:07:41;0.80;;;0.30;;
11082;SDS011;5595;50.186;8.468;2023-07-29T10:10:08;0.38;;;0.38;;
11082;SDS011;5595;50.186;8.468;2023-07-29T10:12:35;1.02;;;0.68;;
11082;SDS011;5595;50.186;8.468;2023-07-29T10:15:04;0.45;;;0.40;;
11082;SDS011;5595;50.186;8.468;2023-07-29T10:17:33;0.38;;;0.38;;
11082;SDS011;5595;50.186;8.468;2023-07-29T10:20:01;0.50;;;0.50;;
11082;SDS011;5595;50.186;8.468;2023-07-29T10:22:33;0.35;;;0.35;;
11082;SDS011;5595;50.186;8.468;2023-07-29T10:25:03;1.17;;;0.47;;
11082;SDS011;5595;50.186;8.468;2023-07-29T10:27:31;0.52;;;0.50;;
11082;SDS011;5595;50.186;8.468;2023-07-29T10:30:07;1.48;;;0.40;;
11082;SDS011;5595;50.186;8.468;2023-07-29T10:32:36;0.40;;;0.40;;
11082;SDS011;5595;50.186;8.468;2023-07-29T10:35:04;0.30;;;0.30;;
11082;SDS011;5595;50.186;8.468;2023-07-29T10:37:32;0.60;;;0.30;;
11082;SDS011;5595;50.186;8.468;2023-07-29T10:39:59;0.20;;;0.20;;
11082;SDS011;5595;50.186;8.468;2023-07-29T10:42:26;0.30;;;0.30;;
11082;SDS011;5595;50.186;8.468;2023-07-29T10:44:53;0.50;;;0.40;;
11082;SDS011;5595;50.186;8.468;2023-07-29T10:47:25;0.30;;;0.30;;
11082;SDS011;5595;50.186;8.468;2023-07-29T10:49:53;0.40;;;0.40;;
11082;SDS011;5595;50.186;8.468;2023-07-29T10:52:28;0.30;;;0.30;;
11082;SDS011;5595;50.186;8.468;2023-07-29T10:54:56;0.55;;;0.55;;
11082;SDS011;5595;50.186;8.468;2023-07-29T10:57:30;1.10;;;0.50;;
11082;SDS011;5595;50.186;8.468;2023-07-29T10:59:58;0.40;;;0.40;;
11082;SDS011;5595;50.186;8.468;2023-07-29T11:02:29;0.88;;;0.40;;
11082;SDS011;5595;50.186;8.468;2023-07-29T11:04:57;0.40;;;0.40;;
11082;SDS011;5595;50.186;8.468;2023-07-29T11:07:25;0.88;;;0.40;;
11082;SDS011;5595;50.186;8.468;2023-07-29T11:09:54;0.95;;;0.40;;
11082;SDS011;5595;50.186;8.468;2023-07-29T11:12:34;0.28;;;0.28;;
11082;SDS011;5595;50.186;8.468;2023-07-29T11:15:11;0.30;;;0.30;;
11082;SDS011;5595;50.186;8.468;2023-07-29T11:17:41;0.30;;;0.30;;
11082;SDS011;5595;50.186;8.468;2023-07-29T11:20:10;0.40;;;0.40;;
11082;SDS011;5595;50.186;8.468;2023-07-29T11:22:38;0.20;;;0.20;;
11082;SDS011;5595;50.186;8.468;2023-07-29T11:25:06;0.50;;;0.40;;
11082;SDS011;5595;50.186;8.468;2023-07-29T11:27:34;0.30;;;0.30;;
11082;SDS011;5595;50.186;8.468;2023-07-29T11:30:01;0.30;;;0.30;;
11082;SDS011;5595;50.186;8.468;2023-07-29T11:32:33;0.85;;;0.43;;
11082;SDS011;5595;50.186;8.468;2023-07-29T11:35:05;0.45;;;0.30;;
11082;SDS011;5595;50.186;8.468;2023-07-29T11:37:33;0.45;;;0.38;;
11082;SDS011;5595;50.186;8.468;2023-07-29T11:40:00;0.45;;;0.28;;
11082;SDS011;5595;50.186;8.468;2023-07-29T11:42:28;0.40;;;0.30;;
11082;SDS011;5595;50.186;8.468;2023-07-29T11:44:57;0.30;;;0.30;;
11082;SDS011;5595;50.186;8.468;2023-07-29T11:47:24;0.20;;;0.20;;
11082;SDS011;5595;50.186;8.468;2023-07-29T11:49:51;0.40;;;0.40;;
11082;SDS011;5595;50.186;8.468;2023-07-29T11:52:19;0.88;;;0.40;;
11082;SDS011;5595;50.186;8.468;2023-07-29T11:54:47;0.38;;;0.38;;
11082;SDS011;5595;50.186;8.468;2023-07-29T11:57:14;0.40;;;0.40;;
11082;SDS011;5595;50.186;8.468;2023-07-29T11:59:43;1.15;;;0.30;;
11082;SDS011;5595;50.186;8.468;2023-07-29T12:02:11;0.77;;;0.50;;
11082;SDS011;5595;50.186;8.468;2023-07-29T12:04:39;0.40;;;0.40;;
11082;SDS011;5595;50.186;8.468;2023-07-29T12:07:07;0.40;;;0.40;;
11082;SDS011;5595;50.186;8.468;2023-07-29T12:12:49;0.30;;;0.30;;
11082;SDS011;5595;50.186;8.468;2023-07-29T12:15:23;0.65;;;0.50;;
11082;SDS011;5595;50.186;8.468;2023-07-29T12:17:54;1.70;;;0.60;;
11082;SDS011;5595;50.186;8.468;2023-07-29T12:20:22;0.40;;;0.40;;
11082;SDS011;5595;50.186;8.468;2023-07-29T12:22:53;0.73;;;0.50;;
11082;SDS011;5595;50.186;8.468;2023-07-29T12:25:20;1.05;;;0.88;;
11082;SDS011;5595;50.186;8.468;2023-07-29T12:27:49;0.60;;;0.50;;
11082;SDS011;5595;50.186;8.468;2023-07-29T12:30:16;0.35;;;0.35;;
11082;SDS011;5595;50.186;8.468;2023-07-29T12:32:46;0.30;;;0.30;;
11082;SDS011;5595;50.186;8.468;2023-07-29T12:35:13;0.50;;;0.50;;
11082;SDS011;5595;50.186;8.468;2023-07-29T12:37:40;0.30;;;0.30;;
11082;SDS011;5595;50.186;8.468;2023-07-29T12:40:09;0.40;;;0.40;;
11082;SDS011;5595;50.186;8.468;2023-07-29T12:42:48;0.40;;;0.40;;
11082;SDS011;5595;50.186;8.468;2023-07-29T12:45:16;1.23;;;0.40;;
11082;SDS011;5595;50.186;8.468;2023-07-29T12:47:43;0.73;;;0.60;;
11082;SDS011;5595;50.186;8.468;2023-07-29T12:50:09;0.45;;;0.40;;
11082;SDS011;5595;50.186;8.468;2023-07-29T12:52:37;0.32;;;0.28;;
11082;SDS011;5595;50.186;8.468;2023-07-29T12:55:04;0.32;;;0.28;;
11082;SDS011;5595;50.186;8.468;2023-07-29T12:57:33;0.38;;;0.38;;
11082;SDS011;5595;50.186;8.468;2023-07-29T13:00:02;0.30;;;0.30;;
11082;SDS011;5595;50.186;8.468;2023-07-29T13:02:29;0.47;;;0.47;;
11082;SDS011;5595;50.186;8.468;2023-07-29T13:04:57;0.32;;;0.32;;
11082;SDS011;5595;50.186;8.468;2023-07-29T13:07:24;0.43;;;0.43;;
11082;SDS011;5595;50.186;8.468;2023-07-29T13:09:50;0.63;;;0.40;;
11082;SDS011;5595;50.186;8.468;2023-07-29T13:12:17;0.75;;;0.40;;
11082;SDS011;5595;50.186;8.468;2023-07-29T13:14:44;1.02;;;0.45;;
11082;SDS011;5595;50.186;8.468;2023-07-29T13:17:12;0.30;;;0.30;;
11082;SDS011;5595;50.186;8.468;2023-07-29T13:19:39;0.40;;;0.40;;
11082;SDS011;5595;50.186;8.468;2023-07-29T13:22:06;0.30;;;0.30;;
11082;SDS011;5595;50.186;8.468;2023-07-29T13:24:33;0.30;;;0.30;;
11082;SDS011;5595;50.186;8.468;2023-07-29T13:27:00;0.50;;;0.40;;
11082;SDS011;5595;50.186;8.468;2023-07-29T13:29:27;0.35;;;0.35;;
11082;SDS011;5595;50.186;8.468;2023-07-29T13:31:53;0.55;;;0.38;;
11082;SDS011;5595;50.186;8.468;2023-07-29T13:34:22;0.30;;;0.30;;
11082;SDS011;5595;50.186;8.468;2023-07-29T13:36:48;0.40;;;0.40;;
11082;SDS011;5595;50.186;8.468;2023-07-29T13:39:15;0.40;;;0.40;;
11082;SDS011;5595;50.186;8.468;2023-07-29T13:41:42;0.35;;;0.35;;
11082;SDS011;5595;50.186;8.468;2023-07-29T13:44:09;0.30;;;0.30;;
11082;SDS011;5595;50.186;8.468;2023-07-29T13:46:36;0.20;;;0.20;;
11082;SDS011;5595;50.186;8.468;2023-07-29T13:49:03;0.40;;;0.40;;
11082;SDS011;5595;50.186;8.468;2023-07-29T13:51:31;0.30;;;0.30;;
11082;SDS011;5595;50.186;8.468;2023-07-29T13:53:58;0.28;;;0.28;;
11082;SDS011;5595;50.186;8.468;2023-07-29T13:56:25;0.55;;;0.30;;
11082;SDS011;5595;50.186;8.468;2023-07-29T13:58:52;0.30;;;0.30;;
11082;SDS011;5595;50.186;8.468;2023-07-29T14:01:18;0.73;;;0.30;;
11082;SDS011;5595;50.186;8.468;2023-07-29T14:03:45;0.30;;;0.30;;
11082;SDS011;5595;50.186;8.468;2023-07-29T14:06:12;0.52;;;0.30;;
11082;SDS011;5595;50.186;8.468;2023-07-29T14:08:40;0.60;;;0.38;;
11082;SDS011;5595;50.186;8.468;2023-07-29T14:11:07;1.02;;;0.40;;
11082;SDS011;5595;50.186;8.468;2023-07-29T14:13:34;0.28;;;0.28;;
11082;SDS011;5595;50.186;8.468;2023-07-29T14:16:01;0.40;;;0.40;;
11082;SDS011;5595;50.186;8.468;2023-07-29T14:18:28;0.28;;;0.28;;
11082;SDS011;5595;50.186;8.468;2023-07-29T14:20:55;4.40;;;0.30;;
11082;SDS011;5595;50.186;8.468;2023-07-29T14:23:22;0.32;;;0.32;;
11082;SDS011;5595;50.186;8.468;2023-07-29T14:25:50;2.22;;;0.20;;
11082;SDS011;5595;50.186;8.468;2023-07-29T14:28:16;0.40;;;0.40;;
11082;SDS011;5595;50.186;8.468;2023-07-29T14:30:43;0.20;;;0.20;;
11082;SDS011;5595;50.186;8.468;2023-07-29T14:33:10;0.30;;;0.30;;
11082;SDS011;5595;50.186;8.468;2023-07-29T14:35:37;0.30;;;0.30;;
11082;SDS011;5595;50.186;8.468;2023-07-29T14:38:04;0.45;;;0.45;;
11082;SDS011;5595;50.186;8.468;2023-07-29T14:40:30;0.35;;;0.30;;
11082;SDS011;5595;50.186;8.468;2023-07-29T14:42:59;0.30;;;0.30;;
11082;SDS011;5595;50.186;8.468;2023-07-29T14:45:26;0.65;;;0.38;;
11082;SDS011;5595;50.186;8.468;2023-07-29T14:47:52;0.50;;;0.40;;
11082;SDS011;5595;50.186;8.468;2023-07-29T14:50:19;0.35;;;0.35;;
11082;SDS011;5595;50.186;8.468;2023-07-29T14:52:46;0.40;;;0.40;;
11082;SDS011;5595;50.186;8.468;2023-07-29T14:55:13;0.40;;;0.40;;
11082;SDS011;5595;50.186;8.468;2023-07-29T14:57:39;0.40;;;0.30;;
11082;SDS011;5595;50.186;8.468;2023-07-29T15:00:09;1.30;;;0.30;;
11082;SDS011;5595;50.186;8.468;2023-07-29T15:02:37;0.30;;;0.30;;
11082;SDS011;5595;50.186;8.468;2023-07-29T15:05:04;0.30;;;0.30;;
11082;SDS011;5595;50.186;8.468;2023-07-29T15:07:31;0.30;;;0.30;;